sensor_id;sensor_type;location;lat;lon;timestamp;pressure;altitude;pressure_sealevel;temperature;humidity
43503;BME280;29098;48.184;16.298;2023-02-15T00:01:20;101076.38;;;4.03;77.78
43503;BME280;29098;48.184;16.298;2023-02-15T00:03:47;101092.25;;;3.86;77.14
43503;BME280;29098;48.184;16.298;2023-02-15T00:06:12;101080.59;;;3.77;77.91
43503;BME280;29098;48.184;16.298;2023-02-15T00:08:38;101076.88;;;3.95;77.46
43503;BME280;29098;48.184;16.298;2023-02-15T00:11:07;101071.72;;;4.08;76.25
43503;BME280;29098;48.184;16.298;2023-02-15T00:13:32;101076.78;;;3.97;77.34
43503;BME280;29098;48.184;16.298;2023-02-15T00:16:04;101068.09;;;3.96;77.88
43503;BME280;29098;48.184;16.298;2023-02-15T00:18:30;101061.97;;;3.83;77.77
43503;BME280;29098;48.184;16.298;2023-02-15T00:20:55;101068.31;;;3.93;77.63
43503;BME280;29098;48.184;16.298;2023-02-15T00:23:21;101065.28;;;4.00;76.89
43503;BME280;29098;48.184;16.298;2023-02-15T00:25:46;101069.84;;;3.96;77.16
43503;BME280;29098;48.184;16.298;2023-02-15T00:28:11;101071.31;;;4.15;76.07
43503;BME280;29098;48.184;16.298;2023-02-15T00:30:37;101073.50;;;3.93;76.49
43503;BME280;29098;48.184;16.298;2023-02-15T00:33:02;101063.75;;;3.82;77.13
43503;BME280;29098;48.184;16.298;2023-02-15T00:35:27;101070.63;;;3.69;76.74
43503;BME280;29098;48.184;16.298;2023-02-15T00:37:53;101066.66;;;3.63;77.33
43503;BME280;29098;48.184;16.298;2023-02-15T00:40:18;101063.38;;;3.74;77.30
43503;BME280;29098;48.184;16.298;2023-02-15T00:42:43;101067.38;;;3.80;77.02
43503;BME280;29098;48.184;16.298;2023-02-15T00:45:09;101059.69;;;3.91;76.84
43503;BME280;29098;48.184;16.298;2023-02-15T00:47:34;101055.44;;;3.90;76.59
43503;BME280;29098;48.184;16.298;2023-02-15T00:50:00;101061.97;;;3.83;76.73
43503;BME280;29098;48.184;16.298;2023-02-15T00:52:25;101060.22;;;3.69;77.44
43503;BME280;29098;48.184;16.298;2023-02-15T00:54:50;101057.97;;;3.77;77.31
43503;BME280;29098;48.184;16.298;2023-02-15T00:57:16;101053.47;;;3.94;76.38
43503;BME280;29098;48.184;16.298;2023-02-15T00:59:41;101049.03;;;3.81;76.71
43503;BME280;29098;48.184;16.298;2023-02-15T01:02:06;101045.66;;;3.79;77.15
43503;BME280;29098;48.184;16.298;2023-02-15T01:04:35;101043.16;;;3.78;77.36
43503;BME280;29098;48.184;16.298;2023-02-15T01:07:00;101048.03;;;3.55;78.26
43503;BME280;29098;48.184;16.298;2023-02-15T01:09:27;101046.72;;;3.62;77.87
43503;BME280;29098;48.184;16.298;2023-02-15T01:11:52;101036.38;;;3.61;77.75
43503;BME280;29098;48.184;16.298;2023-02-15T01:14:17;101038.19;;;3.73;77.27
43503;BME280;29098;48.184;16.298;2023-02-15T01:16:43;101030.78;;;3.67;77.46
43503;BME280;29098;48.184;16.298;2023-02-15T01:19:08;101025.75;;;3.64;77.48
43503;BME280;29098;48.184;16.298;2023-02-15T01:21:34;101029.47;;;3.60;77.67
43503;BME280;29098;48.184;16.298;2023-02-15T01:24:00;101024.91;;;3.63;77.83
43503;BME280;29098;48.184;16.298;2023-02-15T01:26:25;101022.19;;;3.65;77.65
43503;BME280;29098;48.184;16.298;2023-02-15T01:28:51;101015.69;;;3.58;77.47
43503;BME280;29098;48.184;16.298;2023-02-15T01:31:17;101029.00;;;3.53;77.99
43503;BME280;29098;48.184;16.298;2023-02-15T01:33:43;101022.84;;;3.54;77.38
43503;BME280;29098;48.184;16.298;2023-02-15T01:36:09;101012.53;;;3.67;76.69
43503;BME280;29098;48.184;16.298;2023-02-15T01:38:34;101013.25;;;3.69;76.49
43503;BME280;29098;48.184;16.298;2023-02-15T01:41:00;101018.41;;;3.56;77.01
43503;BME280;29098;48.184;16.298;2023-02-15T01:43:47;101013.28;;;3.40;77.53
43503;BME280;29098;48.184;16.298;2023-02-15T01:46:14;101010.31;;;3.32;77.87
43503;BME280;29098;48.184;16.298;2023-02-15T01:48:43;101009.66;;;3.28;78.30
43503;BME280;29098;48.184;16.298;2023-02-15T01:51:09;101009.28;;;3.34;78.20
43503;BME280;29098;48.184;16.298;2023-02-15T01:53:40;101006.59;;;3.36;78.09
43503;BME280;29098;48.184;16.298;2023-02-15T01:56:09;100999.88;;;3.46;77.79
43503;BME280;29098;48.184;16.298;2023-02-15T01:58:36;100999.31;;;3.41;78.04
43503;BME280;29098;48.184;16.298;2023-02-15T02:01:02;100993.28;;;3.40;78.28
43503;BME280;29098;48.184;16.298;2023-02-15T02:03:46;100995.22;;;3.51;77.91
43503;BME280;29098;48.184;16.298;2023-02-15T02:06:14;100991.50;;;3.41;78.07
43503;BME280;29098;48.184;16.298;2023-02-15T02:08:40;100984.38;;;3.58;77.06
43503;BME280;29098;48.184;16.298;2023-02-15T02:11:10;100988.06;;;3.40;77.85
43503;BME280;29098;48.184;16.298;2023-02-15T02:13:35;100990.75;;;3.39;77.73
43503;BME280;29098;48.184;16.298;2023-02-15T02:16:07;100983.66;;;3.26;78.45
43503;BME280;29098;48.184;16.298;2023-02-15T02:28:59;100975.09;;;3.39;77.72
43503;BME280;29098;48.184;16.298;2023-02-15T02:34:16;100979.09;;;3.15;78.05
43503;BME280;29098;48.184;16.298;2023-02-15T02:39:30;100975.13;;;3.24;77.90
43503;BME280;29098;48.184;16.298;2023-02-15T02:42:01;100966.28;;;3.27;77.60
43503;BME280;29098;48.184;16.298;2023-02-15T02:44:42;100964.16;;;3.05;78.65
43503;BME280;29098;48.184;16.298;2023-02-15T02:47:26;100963.56;;;2.99;78.96
43503;BME280;29098;48.184;16.298;2023-02-15T02:49:58;100957.34;;;3.02;79.11
43503;BME280;29098;48.184;16.298;2023-02-15T02:55:13;100961.91;;;2.98;79.03
43503;BME280;29098;48.184;16.298;2023-02-15T02:57:43;100957.53;;;3.13;78.67
43503;BME280;29098;48.184;16.298;2023-02-15T03:00:11;100958.16;;;3.32;78.07
43503;BME280;29098;48.184;16.298;2023-02-15T03:02:37;100952.09;;;3.31;77.84
43503;BME280;29098;48.184;16.298;2023-02-15T03:05:06;100953.81;;;3.32;77.17
43503;BME280;29098;48.184;16.298;2023-02-15T03:07:32;100946.81;;;3.33;77.80
43503;BME280;29098;48.184;16.298;2023-02-15T03:10:00;100945.69;;;3.37;78.74
43503;BME280;29098;48.184;16.298;2023-02-15T03:12:37;100945.06;;;3.19;78.93
43503;BME280;29098;48.184;16.298;2023-02-15T03:15:08;100946.66;;;3.21;78.66
43503;BME280;29098;48.184;16.298;2023-02-15T03:17:35;100943.47;;;3.01;79.11
43503;BME280;29098;48.184;16.298;2023-02-15T03:20:36;100939.00;;;3.04;80.14
43503;BME280;29098;48.184;16.298;2023-02-15T03:22:56;100938.91;;;3.05;80.06
43503;BME280;29098;48.184;16.298;2023-02-15T03:25:23;100948.22;;;2.95;80.37
43503;BME280;29098;48.184;16.298;2023-02-15T03:27:52;100949.81;;;2.97;80.96
43503;BME280;29098;48.184;16.298;2023-02-15T03:30:19;100946.44;;;2.95;80.29
43503;BME280;29098;48.184;16.298;2023-02-15T03:32:45;100950.63;;;2.98;81.26
43503;BME280;29098;48.184;16.298;2023-02-15T03:35:12;100949.44;;;2.89;80.90
43503;BME280;29098;48.184;16.298;2023-02-15T03:37:39;100948.31;;;2.93;81.28
43503;BME280;29098;48.184;16.298;2023-02-15T03:40:07;100942.72;;;3.14;80.88
43503;BME280;29098;48.184;16.298;2023-02-15T03:42:57;100949.91;;;3.10;81.46
43503;BME280;29098;48.184;16.298;2023-02-15T03:45:26;100958.16;;;3.03;80.47
43503;BME280;29098;48.184;16.298;2023-02-15T03:47:53;100954.25;;;2.95;80.92
43503;BME280;29098;48.184;16.298;2023-02-15T03:50:21;100955.47;;;2.90;81.42
43503;BME280;29098;48.184;16.298;2023-02-15T03:53:09;100946.63;;;2.92;81.59
43503;BME280;29098;48.184;16.298;2023-02-15T03:55:35;100946.66;;;3.07;81.84
43503;BME280;29098;48.184;16.298;2023-02-15T03:58:01;100939.84;;;3.19;80.91
43503;BME280;29098;48.184;16.298;2023-02-15T04:00:48;100948.09;;;2.96;80.58
43503;BME280;29098;48.184;16.298;2023-02-15T04:06:00;100955.03;;;2.97;80.85
43503;BME280;29098;48.184;16.298;2023-02-15T04:08:27;100953.97;;;3.00;80.36
43503;BME280;29098;48.184;16.298;2023-02-15T04:11:12;100952.94;;;2.88;81.32
43503;BME280;29098;48.184;16.298;2023-02-15T04:13:37;100953.72;;;3.05;81.35
43503;BME280;29098;48.184;16.298;2023-02-15T04:16:03;100952.50;;;3.25;79.77
43503;BME280;29098;48.184;16.298;2023-02-15T04:18:38;100948.59;;;3.18;80.40
43503;BME280;29098;48.184;16.298;2023-02-15T04:21:23;100944.56;;;3.26;79.66
43503;BME280;29098;48.184;16.298;2023-02-15T04:24:08;100947.22;;;2.97;79.83
43503;BME280;29098;48.184;16.298;2023-02-15T04:26:52;100941.63;;;2.89;80.17
43503;BME280;29098;48.184;16.298;2023-02-15T04:29:18;100947.47;;;2.78;81.14
43503;BME280;29098;48.184;16.298;2023-02-15T04:31:43;100946.03;;;2.72;81.41
43503;BME280;29098;48.184;16.298;2023-02-15T04:34:09;100948.00;;;2.69;81.90
43503;BME280;29098;48.184;16.298;2023-02-15T04:36:35;100945.69;;;2.79;81.73
43503;BME280;29098;48.184;16.298;2023-02-15T04:39:01;100937.38;;;2.57;82.79
43503;BME280;29098;48.184;16.298;2023-02-15T04:41:26;100929.31;;;2.77;82.75
43503;BME280;29098;48.184;16.298;2023-02-15T04:43:52;100933.97;;;2.71;82.67
43503;BME280;29098;48.184;16.298;2023-02-15T04:46:17;100940.09;;;2.70;82.95
43503;BME280;29098;48.184;16.298;2023-02-15T04:48:42;100941.97;;;2.83;82.41
43503;BME280;29098;48.184;16.298;2023-02-15T04:51:08;100944.97;;;2.91;81.52
43503;BME280;29098;48.184;16.298;2023-02-15T04:53:34;100942.34;;;2.91;81.60
43503;BME280;29098;48.184;16.298;2023-02-15T04:56:00;100938.16;;;2.74;81.65
43503;BME280;29098;48.184;16.298;2023-02-15T04:58:25;100940.03;;;2.86;81.74
43503;BME280;29098;48.184;16.298;2023-02-15T05:00:50;100945.69;;;2.79;82.17
43503;BME280;29098;48.184;16.298;2023-02-15T05:03:16;100943.16;;;2.77;82.06
43503;BME280;29098;48.184;16.298;2023-02-15T05:05:42;100947.72;;;2.88;82.51
43503;BME280;29098;48.184;16.298;2023-02-15T05:08:07;100942.44;;;3.04;81.27
43503;BME280;29098;48.184;16.298;2023-02-15T05:10:32;100940.88;;;3.01;81.78
43503;BME280;29098;48.184;16.298;2023-02-15T05:12:58;100940.31;;;3.11;80.73
43503;BME280;29098;48.184;16.298;2023-02-15T05:15:23;100935.47;;;2.90;81.19
43503;BME280;29098;48.184;16.298;2023-02-15T05:17:49;100938.53;;;2.82;81.38
43503;BME280;29098;48.184;16.298;2023-02-15T05:20:14;100937.88;;;2.79;81.37
43503;BME280;29098;48.184;16.298;2023-02-15T05:22:40;100938.44;;;2.69;81.97
43503;BME280;29098;48.184;16.298;2023-02-15T05:25:06;100935.63;;;2.72;82.16
43503;BME280;29098;48.184;16.298;2023-02-15T05:27:49;100936.94;;;2.80;81.76
43503;BME280;29098;48.184;16.298;2023-02-15T05:30:33;100942.81;;;2.83;81.54
43503;BME280;29098;48.184;16.298;2023-02-15T05:32:59;100947.19;;;2.83;81.84
43503;BME280;29098;48.184;16.298;2023-02-15T05:35:24;100942.72;;;2.85;81.24
43503;BME280;29098;48.184;16.298;2023-02-15T05:37:50;100947.91;;;2.70;82.14
43503;BME280;29098;48.184;16.298;2023-02-15T05:40:15;100951.63;;;2.81;81.47
43503;BME280;29098;48.184;16.298;2023-02-15T05:42:40;100950.63;;;2.83;80.99
43503;BME280;29098;48.184;16.298;2023-02-15T05:45:06;100952.28;;;2.84;81.21
43503;BME280;29098;48.184;16.298;2023-02-15T05:47:31;100947.09;;;2.70;81.66
43503;BME280;29098;48.184;16.298;2023-02-15T05:49:57;100950.34;;;2.73;82.21
43503;BME280;29098;48.184;16.298;2023-02-15T05:52:22;100956.00;;;2.66;82.48
43503;BME280;29098;48.184;16.298;2023-02-15T05:54:48;100952.28;;;2.70;82.90
43503;BME280;29098;48.184;16.298;2023-02-15T05:57:13;100953.59;;;2.63;83.49
43503;BME280;29098;48.184;16.298;2023-02-15T05:59:39;100950.88;;;2.64;82.14
43503;BME280;29098;48.184;16.298;2023-02-15T06:02:04;100953.59;;;2.63;82.47
43503;BME280;29098;48.184;16.298;2023-02-15T06:04:31;100954.13;;;2.68;82.48
43503;BME280;29098;48.184;16.298;2023-02-15T06:06:56;100957.28;;;2.58;83.18
43503;BME280;29098;48.184;16.298;2023-02-15T06:09:22;100952.66;;;2.64;83.67
43503;BME280;29098;48.184;16.298;2023-02-15T06:11:47;100951.22;;;2.58;83.65
43503;BME280;29098;48.184;16.298;2023-02-15T06:14:12;100956.44;;;2.58;83.90
43503;BME280;29098;48.184;16.298;2023-02-15T06:16:38;100962.06;;;2.66;84.14
43503;BME280;29098;48.184;16.298;2023-02-15T06:19:03;100965.03;;;2.74;83.87
43503;BME280;29098;48.184;16.298;2023-02-15T06:21:29;100974.81;;;2.71;84.57
43503;BME280;29098;48.184;16.298;2023-02-15T06:23:54;100968.75;;;2.70;84.64
43503;BME280;29098;48.184;16.298;2023-02-15T06:26:20;100969.44;;;2.58;84.72
43503;BME280;29098;48.184;16.298;2023-02-15T06:28:45;100965.75;;;2.62;84.46
43503;BME280;29098;48.184;16.298;2023-02-15T06:31:10;100968.09;;;2.67;84.57
43503;BME280;29098;48.184;16.298;2023-02-15T06:33:36;100970.41;;;2.71;84.31
43503;BME280;29098;48.184;16.298;2023-02-15T06:36:01;100966.53;;;2.93;82.94
43503;BME280;29098;48.184;16.298;2023-02-15T06:38:28;100963.63;;;2.83;82.64
43503;BME280;29098;48.184;16.298;2023-02-15T06:40:54;100971.00;;;2.77;83.84
43503;BME280;29098;48.184;16.298;2023-02-15T06:43:19;100967.19;;;2.97;84.02
43503;BME280;29098;48.184;16.298;2023-02-15T06:45:44;100970.53;;;2.99;82.93
43503;BME280;29098;48.184;16.298;2023-02-15T06:48:10;100967.56;;;3.05;82.18
43503;BME280;29098;48.184;16.298;2023-02-15T06:50:36;100968.22;;;3.09;81.52
43503;BME280;29098;48.184;16.298;2023-02-15T06:53:01;100961.59;;;2.88;82.29
43503;BME280;29098;48.184;16.298;2023-02-15T06:55:26;100961.06;;;2.98;82.47
43503;BME280;29098;48.184;16.298;2023-02-15T06:57:52;100951.84;;;2.92;83.03
43503;BME280;29098;48.184;16.298;2023-02-15T07:00:17;100964.31;;;2.87;83.82
43503;BME280;29098;48.184;16.298;2023-02-15T07:02:43;100954.72;;;2.87;84.16
43503;BME280;29098;48.184;16.298;2023-02-15T07:05:09;100956.41;;;2.88;84.45
43503;BME280;29098;48.184;16.298;2023-02-15T07:07:34;100951.66;;;3.24;83.47
43503;BME280;29098;48.184;16.298;2023-02-15T07:10:00;100954.63;;;3.33;83.12
43503;BME280;29098;48.184;16.298;2023-02-15T07:12:25;100951.09;;;3.34;82.92
43503;BME280;29098;48.184;16.298;2023-02-15T07:15:06;100944.78;;;3.09;83.93
43503;BME280;29098;48.184;16.298;2023-02-15T07:17:32;100947.50;;;2.93;84.06
43503;BME280;29098;48.184;16.298;2023-02-15T07:19:58;100952.97;;;3.03;84.42
43503;BME280;29098;48.184;16.298;2023-02-15T07:22:23;100944.22;;;3.04;83.85
43503;BME280;29098;48.184;16.298;2023-02-15T07:24:48;100933.41;;;2.95;83.69
43503;BME280;29098;48.184;16.298;2023-02-15T07:27:14;100947.84;;;3.15;83.66
43503;BME280;29098;48.184;16.298;2023-02-15T07:29:40;100941.22;;;2.95;84.11
43503;BME280;29098;48.184;16.298;2023-02-15T07:32:05;100942.91;;;2.96;84.43
43503;BME280;29098;48.184;16.298;2023-02-15T07:34:30;100946.06;;;3.16;83.47
43503;BME280;29098;48.184;16.298;2023-02-15T07:36:56;100940.59;;;3.21;82.97
43503;BME280;29098;48.184;16.298;2023-02-15T07:39:21;100948.22;;;3.09;83.24
43503;BME280;29098;48.184;16.298;2023-02-15T07:41:47;100947.59;;;3.20;83.25
43503;BME280;29098;48.184;16.298;2023-02-15T07:44:13;100949.25;;;3.21;82.72
43503;BME280;29098;48.184;16.298;2023-02-15T07:46:38;100944.97;;;3.20;83.00
43503;BME280;29098;48.184;16.298;2023-02-15T07:49:04;100942.31;;;3.35;82.19
43503;BME280;29098;48.184;16.298;2023-02-15T07:51:29;100944.22;;;3.18;82.84
43503;BME280;29098;48.184;16.298;2023-02-15T07:53:54;100950.91;;;3.08;83.13
43503;BME280;29098;48.184;16.298;2023-02-15T07:56:20;100941.81;;;3.15;83.15
43503;BME280;29098;48.184;16.298;2023-02-15T07:58:45;100946.06;;;3.16;83.13
43503;BME280;29098;48.184;16.298;2023-02-15T08:01:21;100948.69;;;3.31;83.11
43503;BME280;29098;48.184;16.298;2023-02-15T08:03:47;100954.81;;;3.29;82.60
43503;BME280;29098;48.184;16.298;2023-02-15T08:06:13;100953.97;;;3.29;82.61
43503;BME280;29098;48.184;16.298;2023-02-15T08:08:39;100952.38;;;3.26;82.79
43503;BME280;29098;48.184;16.298;2023-02-15T08:13:49;100950.72;;;3.25;82.34
43503;BME280;29098;48.184;16.298;2023-02-15T08:19:01;100952.38;;;3.26;82.73
43503;BME280;29098;48.184;16.298;2023-02-15T08:21:28;100953.53;;;3.22;81.70
43503;BME280;29098;48.184;16.298;2023-02-15T08:23:54;100955.19;;;3.23;82.27
43503;BME280;29098;48.184;16.298;2023-02-15T08:26:20;100957.22;;;3.04;82.79
43503;BME280;29098;48.184;16.298;2023-02-15T08:28:45;100953.63;;;3.21;82.77
43503;BME280;29098;48.184;16.298;2023-02-15T08:31:12;100951.66;;;3.24;82.75
43503;BME280;29098;48.184;16.298;2023-02-15T08:33:38;100950.56;;;3.28;82.84
43503;BME280;29098;48.184;16.298;2023-02-15T08:38:29;100949.69;;;3.42;81.66
43503;BME280;29098;48.184;16.298;2023-02-15T08:40:55;100955.56;;;3.46;81.67
43503;BME280;29098;48.184;16.298;2023-02-15T08:43:20;100948.72;;;3.58;80.74
43503;BME280;29098;48.184;16.298;2023-02-15T08:45:45;100951.50;;;3.27;81.61
43503;BME280;29098;48.184;16.298;2023-02-15T08:48:11;100945.34;;;3.14;82.25
43503;BME280;29098;48.184;16.298;2023-02-15T08:50:36;100936.38;;;3.18;82.66
43503;BME280;29098;48.184;16.298;2023-02-15T08:53:01;100939.19;;;3.15;82.75
43503;BME280;29098;48.184;16.298;2023-02-15T08:55:27;100935.75;;;3.14;82.57
43503;BME280;29098;48.184;16.298;2023-02-15T08:57:52;100940.00;;;3.30;82.16
43503;BME280;29098;48.184;16.298;2023-02-15T09:00:20;100936.88;;;3.25;82.08
43503;BME280;29098;48.184;16.298;2023-02-15T09:02:47;100941.50;;;3.20;82.63
43503;BME280;29098;48.184;16.298;2023-02-15T09:05:12;100941.59;;;3.18;82.42
43503;BME280;29098;48.184;16.298;2023-02-15T09:07:38;100937.88;;;3.22;83.06
43503;BME280;29098;48.184;16.298;2023-02-15T09:10:04;100934.25;;;3.25;82.40
43503;BME280;29098;48.184;16.298;2023-02-15T09:12:29;100941.94;;;3.41;82.13
43503;BME280;29098;48.184;16.298;2023-02-15T09:14:55;100938.25;;;3.31;81.58
43503;BME280;29098;48.184;16.298;2023-02-15T09:17:20;100938.53;;;3.40;81.85
43503;BME280;29098;48.184;16.298;2023-02-15T09:19:45;100939.69;;;3.49;81.43
43503;BME280;29098;48.184;16.298;2023-02-15T09:22:10;100942.78;;;3.56;80.90
43503;BME280;29098;48.184;16.298;2023-02-15T09:24:36;100940.09;;;3.43;81.59
43503;BME280;29098;48.184;16.298;2023-02-15T09:27:01;100936.03;;;3.24;82.61
43503;BME280;29098;48.184;16.298;2023-02-15T09:29:26;100938.25;;;3.31;81.85
43503;BME280;29098;48.184;16.298;2023-02-15T09:31:52;100941.50;;;3.34;82.16
43503;BME280;29098;48.184;16.298;2023-02-15T09:34:19;100926.84;;;3.61;80.97
43503;BME280;29098;48.184;16.298;2023-02-15T09:36:45;100931.09;;;3.76;80.48
43503;BME280;29098;48.184;16.298;2023-02-15T09:55:16;100933.00;;;3.60;80.54
43503;BME280;29098;48.184;16.298;2023-02-15T09:57:58;100925.88;;;3.76;79.93
43503;BME280;29098;48.184;16.298;2023-02-15T10:08:42;100919.31;;;4.11;77.11
43503;BME280;29098;48.184;16.298;2023-02-15T10:11:15;100917.44;;;3.58;79.00
43503;BME280;29098;48.184;16.298;2023-02-15T10:19:04;100919.09;;;3.87;78.53
43503;BME280;29098;48.184;16.298;2023-02-15T10:21:56;100920.88;;;4.14;78.10
43503;BME280;29098;48.184;16.298;2023-02-15T10:24:27;100915.25;;;3.92;78.09
43503;BME280;29098;48.184;16.298;2023-02-15T10:26:56;100917.50;;;3.71;78.79
43503;BME280;29098;48.184;16.298;2023-02-15T10:29:37;100918.00;;;3.91;78.22
43503;BME280;29098;48.184;16.298;2023-02-15T10:39:48;100901.66;;;3.74;79.27
43503;BME280;29098;48.184;16.298;2023-02-15T10:42:26;100905.69;;;3.93;78.80
43503;BME280;29098;48.184;16.298;2023-02-15T11:03:40;100873.38;;;4.86;77.69
43503;BME280;29098;48.184;16.298;2023-02-15T11:06:17;100863.66;;;4.88;75.28
43503;BME280;29098;48.184;16.298;2023-02-15T11:08:51;100862.50;;;4.92;74.39
43503;BME280;29098;48.184;16.298;2023-02-15T11:11:27;100862.28;;;4.96;74.96
43503;BME280;29098;48.184;16.298;2023-02-15T11:13:57;100860.38;;;5.11;74.47
43503;BME280;29098;48.184;16.298;2023-02-15T11:16:28;100852.56;;;4.98;74.45
43503;BME280;29098;48.184;16.298;2023-02-15T11:18:59;100853.50;;;4.84;74.64
43503;BME280;29098;48.184;16.298;2023-02-15T11:21:28;100855.00;;;4.62;75.93
43503;BME280;29098;48.184;16.298;2023-02-15T11:23:54;100854.69;;;4.53;76.86
43503;BME280;29098;48.184;16.298;2023-02-15T11:28:52;100855.84;;;4.62;76.52
43503;BME280;29098;48.184;16.298;2023-02-15T11:31:23;100849.59;;;4.52;76.30
43503;BME280;29098;48.184;16.298;2023-02-15T11:34:00;100854.38;;;4.58;75.58
43503;BME280;29098;48.184;16.298;2023-02-15T11:36:29;100852.81;;;4.69;75.86
43503;BME280;29098;48.184;16.298;2023-02-15T11:38:59;100853.66;;;4.82;75.66
43503;BME280;29098;48.184;16.298;2023-02-15T11:41:28;100850.28;;;4.93;75.11
43503;BME280;29098;48.184;16.298;2023-02-15T11:43:58;100846.66;;;4.70;76.09
43503;BME280;29098;48.184;16.298;2023-02-15T11:46:26;100843.09;;;4.71;76.31
43503;BME280;29098;48.184;16.298;2023-02-15T11:48:51;100844.72;;;4.98;75.91
43503;BME280;29098;48.184;16.298;2023-02-15T11:51:17;100842.41;;;5.06;75.41
43503;BME280;29098;48.184;16.298;2023-02-15T11:53:44;100835.28;;;5.08;75.27
43503;BME280;29098;48.184;16.298;2023-02-15T11:56:17;100835.94;;;4.99;75.23
43503;BME280;29098;48.184;16.298;2023-02-15T11:58:54;100838.56;;;4.99;75.33
43503;BME280;29098;48.184;16.298;2023-02-15T12:01:40;100833.81;;;5.04;74.54
43503;BME280;29098;48.184;16.298;2023-02-15T12:09:55;100833.13;;;5.75;73.29
43503;BME280;29098;48.184;16.298;2023-02-15T12:12:27;100835.03;;;5.73;72.80
43503;BME280;29098;48.184;16.298;2023-02-15T12:14:54;100836.31;;;5.67;72.25
43503;BME280;29098;48.184;16.298;2023-02-15T12:17:24;100828.66;;;5.53;72.38
43503;BME280;29098;48.184;16.298;2023-02-15T12:19:51;100823.53;;;5.51;72.36
43503;BME280;29098;48.184;16.298;2023-02-15T12:22:24;100822.03;;;5.60;72.40
43503;BME280;29098;48.184;16.298;2023-02-15T12:24:50;100815.84;;;5.61;72.35
43503;BME280;29098;48.184;16.298;2023-02-15T12:29:44;100814.81;;;5.51;73.19
43503;BME280;29098;48.184;16.298;2023-02-15T12:32:16;100819.22;;;5.74;73.15
43503;BME280;29098;48.184;16.298;2023-02-15T12:34:43;100813.59;;;6.03;71.75
43503;BME280;29098;48.184;16.298;2023-02-15T12:37:20;100806.28;;;6.32;70.15
43503;BME280;29098;48.184;16.298;2023-02-15T12:39:54;100810.34;;;6.47;70.00
43503;BME280;29098;48.184;16.298;2023-02-15T12:42:20;100800.56;;;6.49;69.12
43503;BME280;29098;48.184;16.298;2023-02-15T12:47:24;100802.50;;;6.58;67.55
43503;BME280;29098;48.184;16.298;2023-02-15T12:52:42;100789.25;;;6.71;67.68
43503;BME280;29098;48.184;16.298;2023-02-15T12:55:27;100793.53;;;6.84;66.90
43503;BME280;29098;48.184;16.298;2023-02-15T13:00:32;100790.03;;;7.93;64.87
43503;BME280;29098;48.184;16.298;2023-02-15T13:02:58;100782.84;;;8.16;62.82
43503;BME280;29098;48.184;16.298;2023-02-15T13:05:35;100780.81;;;9.12;61.36
43503;BME280;29098;48.184;16.298;2023-02-15T13:10:35;100790.81;;;10.35;57.13
43503;BME280;29098;48.184;16.298;2023-02-15T13:13:01;100768.16;;;10.52;55.03
43503;BME280;29098;48.184;16.298;2023-02-15T13:15:37;100767.97;;;10.25;56.00
43503;BME280;29098;48.184;16.298;2023-02-15T13:18:05;100771.84;;;10.87;53.42
43503;BME280;29098;48.184;16.298;2023-02-15T13:20:34;100760.09;;;10.06;54.73
43503;BME280;29098;48.184;16.298;2023-02-15T13:23:02;100762.09;;;10.69;53.50
43503;BME280;29098;48.184;16.298;2023-02-15T13:25:32;100755.84;;;10.71;53.16
43503;BME280;29098;48.184;16.298;2023-02-15T13:28:01;100758.03;;;11.66;51.07
43503;BME280;29098;48.184;16.298;2023-02-15T13:30:28;100760.59;;;11.13;51.39
43503;BME280;29098;48.184;16.298;2023-02-15T13:33:02;100761.09;;;11.35;51.51
43503;BME280;29098;48.184;16.298;2023-02-15T13:35:30;100757.91;;;11.31;50.88
43503;BME280;29098;48.184;16.298;2023-02-15T13:40:55;100748.34;;;11.12;51.94
43503;BME280;29098;48.184;16.298;2023-02-15T13:43:34;100760.13;;;11.00;51.78
43503;BME280;29098;48.184;16.298;2023-02-15T13:46:08;100758.38;;;11.45;51.15
43503;BME280;29098;48.184;16.298;2023-02-15T13:51:12;100756.44;;;12.26;49.58
43503;BME280;29098;48.184;16.298;2023-02-15T14:01:09;100744.25;;;12.33;47.72
43503;BME280;29098;48.184;16.298;2023-02-15T14:03:51;100733.91;;;12.05;48.13
43503;BME280;29098;48.184;16.298;2023-02-15T14:08:50;100734.78;;;11.07;50.58
43503;BME280;29098;48.184;16.298;2023-02-15T14:11:22;100733.78;;;10.44;51.83
43503;BME280;29098;48.184;16.298;2023-02-15T14:16:27;100728.63;;;8.97;56.72
43503;BME280;29098;48.184;16.298;2023-02-15T14:26:49;100720.56;;;7.76;61.84
43503;BME280;29098;48.184;16.298;2023-02-15T14:31:54;100721.88;;;6.95;65.23
43503;BME280;29098;48.184;16.298;2023-02-15T14:34:29;100718.31;;;6.96;65.18
43503;BME280;29098;48.184;16.298;2023-02-15T14:36:56;100714.34;;;7.34;65.13
43503;BME280;29098;48.184;16.298;2023-02-15T14:42:24;100709.81;;;7.79;63.29
43503;BME280;29098;48.184;16.298;2023-02-15T14:44:56;100716.03;;;8.91;60.21
43503;BME280;29098;48.184;16.298;2023-02-15T14:47:28;100715.19;;;9.59;57.44
43503;BME280;29098;48.184;16.298;2023-02-15T14:49:57;100706.16;;;10.10;55.54
43503;BME280;29098;48.184;16.298;2023-02-15T14:52:23;100707.84;;;10.01;55.55
43503;BME280;29098;48.184;16.298;2023-02-15T15:02:15;100702.97;;;8.60;59.29
43503;BME280;29098;48.184;16.298;2023-02-15T15:04:44;100702.16;;;8.69;59.21
43503;BME280;29098;48.184;16.298;2023-02-15T15:07:26;100695.41;;;8.35;60.16
43503;BME280;29098;48.184;16.298;2023-02-15T15:10:53;100695.34;;;8.26;60.60
43503;BME280;29098;48.184;16.298;2023-02-15T15:12:51;100691.34;;;8.21;61.04
43503;BME280;29098;48.184;16.298;2023-02-15T15:17:56;100700.41;;;8.48;59.99
43503;BME280;29098;48.184;16.298;2023-02-15T15:22:50;100683.50;;;7.48;63.06
43503;BME280;29098;48.184;16.298;2023-02-15T15:27:59;100677.41;;;7.26;64.17
43503;BME280;29098;48.184;16.298;2023-02-15T15:50:40;100678.25;;;5.70;72.62